Terminal Aerodrome Forecast
Issued by NWS Sioux Falls, SD

Home | Current Version | Previous Version | Graphics & Text | Print | Product List | Glossary Off
Versions: 1 2 3 4 5 6 7 8 9 10 11 12 13

101
FTUS43 KFSD 052031 AAA
TAFHON
TAF AMD
KHON 052031Z 0521/0618 31007KT 5SM -SN BKN010
     FM052200 32008KT P6SM SCT050
     FM060300 23005KT P6SM SCT150
     FM061000 19007KT P6SM SCT150=

USA.gov is the U.S. government's official web portal to all federal, state and local government web resources and services.